createdAt,value
2023-03-29T00:00:01.960Z,2.93
2023-03-29T00:02:30.551Z,3.97
2023-03-29T00:05:01.911Z,3.60
2023-03-29T00:07:30.080Z,3.83
2023-03-29T00:09:57.918Z,3.10
2023-03-29T00:12:25.470Z,3.13
2023-03-29T00:14:52.899Z,3.33
2023-03-29T00:17:20.278Z,3.03
2023-03-29T00:19:48.900Z,2.80
2023-03-29T00:22:16.461Z,2.77
2023-03-29T00:24:43.358Z,3.50
2023-03-29T00:27:10.358Z,3.20
2023-03-29T00:29:37.609Z,3.80
2023-03-29T00:32:05.247Z,2.97
2023-03-29T00:34:32.151Z,3.33
2023-03-29T00:37:00.345Z,3.07
2023-03-29T00:39:27.926Z,3.13
2023-03-29T00:41:55.235Z,3.37
2023-03-29T00:45:03.778Z,3.30
2023-03-29T00:47:39.491Z,2.87
2023-03-29T00:50:15.630Z,2.90
2023-03-29T00:52:51.036Z,3.17
2023-03-29T00:55:22.705Z,3.37
2023-03-29T00:57:53.548Z,3.07
2023-03-29T01:00:31.660Z,3.57
2023-03-29T01:03:04.958Z,3.00
2023-03-29T01:05:40.371Z,3.10
2023-03-29T01:08:18.087Z,2.70
2023-03-29T01:10:51.412Z,3.47
2023-03-29T01:13:27.029Z,3.27
2023-03-29T01:15:56.423Z,3.20
2023-03-29T01:18:23.423Z,3.10
2023-03-29T01:21:14.722Z,3.67
2023-03-29T01:24:06.590Z,3.40
2023-03-29T01:26:52.044Z,3.27
2023-03-29T01:29:28.422Z,2.87
2023-03-29T01:32:04.256Z,3.63
2023-03-29T01:34:40.639Z,3.10
2023-03-29T01:37:15.674Z,3.67
2023-03-29T01:39:42.743Z,3.33
2023-03-29T01:42:31.720Z,3.23
2023-03-29T01:45:10.780Z,3.47
2023-03-29T01:47:48.210Z,3.67
2023-03-29T01:50:24.074Z,3.50
2023-03-29T01:52:59.478Z,3.43
2023-03-29T01:55:33.714Z,3.17
2023-03-29T01:58:04.958Z,3.53
2023-03-29T02:00:36.077Z,3.30
2023-03-29T02:03:09.213Z,3.53
2023-03-29T02:05:39.354Z,4.63
2023-03-29T02:08:12.065Z,3.27
2023-03-29T02:10:39.777Z,3.53
2023-03-29T02:13:06.714Z,4.07
2023-03-29T02:15:35.374Z,3.83
2023-03-29T02:18:03.837Z,4.50
2023-03-29T02:20:36.752Z,3.67
2023-03-29T02:23:11.639Z,3.83
2023-03-29T02:25:38.741Z,4.60
2023-03-29T02:28:07.309Z,4.40
2023-03-29T02:30:46.285Z,4.07
2023-03-29T02:33:18.052Z,4.83
2023-03-29T02:35:54.490Z,4.50
2023-03-29T02:38:26.304Z,4.63
2023-03-29T02:40:55.211Z,4.47
2023-03-29T02:43:26.131Z,5.50
2023-03-29T02:45:55.979Z,5.53
2023-03-29T02:48:28.019Z,6.00
2023-03-29T02:51:01.053Z,5.53
2023-03-29T02:53:44.681Z,5.13
2023-03-29T02:56:11.624Z,5.03
2023-03-29T02:58:38.596Z,4.70
2023-03-29T03:01:09.636Z,5.60
2023-03-29T03:03:36.704Z,5.97
2023-03-29T03:06:04.654Z,6.03
2023-03-29T03:08:32.126Z,6.87
2023-03-29T03:10:59.596Z,6.57
2023-03-29T03:13:26.966Z,6.97
2023-03-29T03:15:54.081Z,7.23
2023-03-29T03:18:23.279Z,7.30
2023-03-29T03:20:57.533Z,7.10
2023-03-29T03:23:25.009Z,8.30
2023-03-29T03:25:52.625Z,7.57
2023-03-29T03:28:20.318Z,7.67
2023-03-29T03:30:47.241Z,8.30
2023-03-29T03:33:14.221Z,8.90
2023-03-29T03:35:42.516Z,8.53
2023-03-29T03:38:10.733Z,9.20
2023-03-29T03:40:38.308Z,8.57
2023-03-29T03:43:05.219Z,8.70
2023-03-29T03:45:32.333Z,9.63
2023-03-29T03:47:59.256Z,9.47
2023-03-29T03:50:26.159Z,8.47
2023-03-29T03:52:54.396Z,9.60
2023-03-29T03:55:21.963Z,9.47
2023-03-29T03:57:48.917Z,9.10
2023-03-29T04:00:19.247Z,8.63
2023-03-29T04:02:48.105Z,9.23
2023-03-29T04:05:16.957Z,9.47
2023-03-29T04:07:43.924Z,8.90
2023-03-29T04:10:12.506Z,9.93
2023-03-29T04:12:39.853Z,9.50
2023-03-29T04:15:08.639Z,8.53
2023-03-29T04:17:35.763Z,9.13
2023-03-29T04:20:10.177Z,9.27
2023-03-29T04:22:37.212Z,8.50
2023-03-29T04:25:06.235Z,9.03
2023-03-29T04:27:34.473Z,8.00
2023-03-29T04:30:01.414Z,9.27
2023-03-29T04:32:28.542Z,7.83
2023-03-29T04:34:55.405Z,8.37
2023-03-29T04:37:22.272Z,7.43
2023-03-29T04:39:49.720Z,7.87
2023-03-29T04:42:17.716Z,7.60
2023-03-29T04:44:46.177Z,7.20
2023-03-29T04:47:13.157Z,7.63
2023-03-29T04:49:41.151Z,7.50
2023-03-29T04:52:08.946Z,7.43
2023-03-29T04:54:37.247Z,6.97
2023-03-29T04:57:05.923Z,7.27
2023-03-29T04:59:32.887Z,6.90
2023-03-29T05:02:04.767Z,6.73
2023-03-29T05:04:32.978Z,6.73
2023-03-29T05:07:01.580Z,6.50
2023-03-29T05:09:29.416Z,7.07
2023-03-29T05:11:56.358Z,5.90
2023-03-29T05:14:23.470Z,6.33
2023-03-29T05:16:50.363Z,6.03
2023-03-29T05:19:21.949Z,5.77
2023-03-29T05:21:50.853Z,5.73
2023-03-29T05:24:17.798Z,6.17
2023-03-29T05:26:44.992Z,5.60
2023-03-29T05:29:12.242Z,5.83
2023-03-29T05:31:39.674Z,5.00
2023-03-29T05:34:07.240Z,5.70
2023-03-29T05:36:35.584Z,5.00
2023-03-29T05:39:02.701Z,4.63
2023-03-29T05:41:29.927Z,4.87
2023-03-29T05:43:57.825Z,4.70
2023-03-29T05:46:24.742Z,5.13
2023-03-29T05:48:51.727Z,5.30
2023-03-29T05:51:24.214Z,5.00
2023-03-29T05:53:53.170Z,5.03
2023-03-29T05:56:20.491Z,5.57
2023-03-29T05:58:49.171Z,5.20
2023-03-29T06:01:17.916Z,5.10
2023-03-29T06:03:47.327Z,5.20
2023-03-29T06:06:16.373Z,5.07
2023-03-29T06:08:44.868Z,4.90
2023-03-29T06:11:14.262Z,5.20
2023-03-29T06:13:42.081Z,5.13
2023-03-29T06:16:10.799Z,5.20
2023-03-29T06:18:41.073Z,4.57
2023-03-29T06:21:09.339Z,4.53
2023-03-29T06:23:36.800Z,5.37
2023-03-29T06:26:05.737Z,5.20
2023-03-29T06:28:34.237Z,4.63
2023-03-29T06:31:02.932Z,4.53
2023-03-29T06:33:32.237Z,4.40
2023-03-29T06:35:59.563Z,4.93
2023-03-29T06:38:28.306Z,4.90
2023-03-29T06:41:02.441Z,4.13
2023-03-29T06:43:29.933Z,4.50
2023-03-29T06:45:58.421Z,5.23
2023-03-29T06:48:25.851Z,5.00
2023-03-29T06:50:54.461Z,5.03
2023-03-29T06:53:21.996Z,4.27
2023-03-29T06:55:50.129Z,4.73
2023-03-29T06:58:17.064Z,4.90
2023-03-29T07:00:44.001Z,4.20
2023-03-29T07:03:19.992Z,4.93
2023-03-29T07:05:47.632Z,4.47
2023-03-29T07:08:16.350Z,4.43
2023-03-29T07:10:47.415Z,4.60
2023-03-29T07:13:15.382Z,3.87
2023-03-29T07:15:43.415Z,4.03
2023-03-29T07:18:15.254Z,4.67
2023-03-29T07:20:42.519Z,5.30
2023-03-29T07:23:10.542Z,4.20
2023-03-29T07:25:38.490Z,5.03
2023-03-29T07:28:06.169Z,4.37
2023-03-29T07:30:33.579Z,4.73
2023-03-29T07:33:00.821Z,4.40
2023-03-29T07:35:30.707Z,10.50
2023-03-29T07:37:58.487Z,4.23
2023-03-29T07:40:26.077Z,4.87
2023-03-29T07:42:56.421Z,4.90
2023-03-29T07:45:26.887Z,4.40
2023-03-29T07:47:58.904Z,4.30
2023-03-29T07:50:27.119Z,4.57
2023-03-29T07:52:56.848Z,6.00
2023-03-29T07:55:24.113Z,4.67
2023-03-29T07:57:51.154Z,4.87
2023-03-29T08:00:20.104Z,3.93
2023-03-29T08:02:52.622Z,5.00
2023-03-29T08:05:37.887Z,5.07
2023-03-29T08:08:09.732Z,4.30
2023-03-29T08:10:39.263Z,4.87
2023-03-29T08:13:09.036Z,5.27
2023-03-29T08:15:39.049Z,3.90
2023-03-29T08:18:06.736Z,4.67
2023-03-29T08:20:34.291Z,4.40
2023-03-29T08:23:01.705Z,5.20
2023-03-29T08:25:29.954Z,5.97
2023-03-29T08:27:57.058Z,4.73
2023-03-29T08:30:24.693Z,5.37
2023-03-29T08:32:55.260Z,4.60
2023-03-29T08:35:23.035Z,5.20
2023-03-29T08:37:50.070Z,5.30
2023-03-29T08:40:22.989Z,5.25
2023-03-29T08:43:11.186Z,4.80
2023-03-29T08:45:51.167Z,4.83
2023-03-29T08:48:28.501Z,4.73
2023-03-29T08:51:03.459Z,4.60
2023-03-29T08:53:38.322Z,4.60
2023-03-29T08:56:14.230Z,5.00
2023-03-29T08:58:45.040Z,6.03
2023-03-29T09:01:12.710Z,5.83
2023-03-29T09:03:47.796Z,5.60
2023-03-29T09:06:21.442Z,7.63
2023-03-29T09:08:50.924Z,5.57
2023-03-29T09:11:49.997Z,5.77
2023-03-29T09:14:41.897Z,5.67
2023-03-29T09:17:34.352Z,6.23
2023-03-29T09:20:19.491Z,5.57
2023-03-29T09:23:00.869Z,5.47
2023-03-29T09:25:53.409Z,5.63
2023-03-29T09:28:34.563Z,6.27
2023-03-29T09:31:12.815Z,7.50
2023-03-29T09:33:46.719Z,6.23
2023-03-29T09:36:23.508Z,5.70
2023-03-29T09:38:54.229Z,6.90
2023-03-29T09:41:29.402Z,7.13
2023-03-29T09:44:02.971Z,6.87
2023-03-29T09:46:40.439Z,6.20
2023-03-29T09:49:17.587Z,6.57
2023-03-29T09:51:49.579Z,6.47
2023-03-29T09:54:17.501Z,6.77
2023-03-29T09:56:44.618Z,7.60
2023-03-29T09:59:12.567Z,6.17
2023-03-29T10:01:45.466Z,7.77
2023-03-29T10:04:14.070Z,6.93
2023-03-29T10:06:49.440Z,7.10
2023-03-29T10:09:20.780Z,8.52
2023-03-29T10:11:52.366Z,7.13
2023-03-29T10:14:26.370Z,8.57
2023-03-29T10:16:57.284Z,6.90
2023-03-29T10:19:30.946Z,8.40
2023-03-29T10:22:04.587Z,7.37
2023-03-29T10:24:31.852Z,6.93
2023-03-29T10:27:02.873Z,6.13
2023-03-29T10:29:38.424Z,8.50
2023-03-29T10:32:18.308Z,7.87
2023-03-29T10:34:47.700Z,6.93
2023-03-29T10:37:19.126Z,7.73
2023-03-29T10:39:49.046Z,9.18
2023-03-29T10:42:19.538Z,7.00
2023-03-29T10:44:54.349Z,7.83
2023-03-29T10:47:23.280Z,8.10
2023-03-29T10:49:56.421Z,7.07
2023-03-29T10:52:24.924Z,8.03
2023-03-29T10:54:56.225Z,7.97
2023-03-29T10:57:37.198Z,8.40
2023-03-29T11:00:16.639Z,7.50
2023-03-29T11:03:16.213Z,8.40
2023-03-29T11:05:55.633Z,8.20
2023-03-29T11:08:46.500Z,8.20
2023-03-29T11:11:41.075Z,8.10
2023-03-29T11:14:25.271Z,9.50
2023-03-29T11:17:05.472Z,7.50
2023-03-29T11:20:03.707Z,8.37
2023-03-29T11:22:44.372Z,9.00
2023-03-29T11:25:33.311Z,8.97
2023-03-29T11:28:13.949Z,8.80
2023-03-29T11:30:52.626Z,8.85
2023-03-29T11:33:37.492Z,8.77
2023-03-29T11:36:16.513Z,8.67
2023-03-29T11:38:57.019Z,8.90
2023-03-29T11:41:30.633Z,7.23
2023-03-29T11:44:04.544Z,7.07
2023-03-29T11:46:38.503Z,8.43
2023-03-29T11:49:14.778Z,8.37
2023-03-29T11:51:51.887Z,8.30
2023-03-29T11:54:28.360Z,8.50
2023-03-29T11:57:02.162Z,8.67
2023-03-29T11:59:37.604Z,8.90
2023-03-29T12:02:18.691Z,8.53
2023-03-29T12:04:52.968Z,8.87
2023-03-29T12:07:29.428Z,8.33
2023-03-29T12:10:02.660Z,7.90
2023-03-29T12:12:41.590Z,7.90
2023-03-29T12:15:19.957Z,8.33
2023-03-29T12:17:58.496Z,9.47
2023-03-29T12:20:33.577Z,7.93
2023-03-29T12:23:02.590Z,8.40
2023-03-29T12:25:37.365Z,8.70
2023-03-29T12:28:33.478Z,7.87
2023-03-29T12:31:17.354Z,7.97
2023-03-29T12:34:34.838Z,8.73
2023-03-29T12:37:37.252Z,8.10
2023-03-29T12:40:15.858Z,8.80
2023-03-29T12:42:48.253Z,9.30
2023-03-29T12:45:20.379Z,8.17
2023-03-29T12:47:51.482Z,8.50
2023-03-29T12:50:28.390Z,8.13
2023-03-29T12:53:23.874Z,8.87
2023-03-29T12:56:09.210Z,8.77
2023-03-29T12:58:54.682Z,8.93
2023-03-29T13:01:27.426Z,7.90
2023-03-29T13:04:13.709Z,8.83
2023-03-29T13:07:05.730Z,8.20
2023-03-29T13:09:36.734Z,7.70
2023-03-29T13:12:22.714Z,8.17
2023-03-29T13:14:53.997Z,9.00
2023-03-29T13:17:30.843Z,9.53
2023-03-29T13:20:24.257Z,8.17
2023-03-29T13:23:10.759Z,8.97
2023-03-29T13:26:06.244Z,7.47
2023-03-29T13:28:52.135Z,8.17
2023-03-29T13:31:36.077Z,7.70
2023-03-29T13:34:15.794Z,8.17
2023-03-29T13:37:02.478Z,7.93
2023-03-29T13:39:33.431Z,8.87
2023-03-29T13:42:19.673Z,8.47
2023-03-29T13:44:51.264Z,7.40
2023-03-29T13:47:43.231Z,7.47
2023-03-29T13:50:19.004Z,7.53
2023-03-29T13:52:59.463Z,10.57
2023-03-29T13:55:33.313Z,7.60
2023-03-29T13:58:09.738Z,7.00
2023-03-29T14:00:47.042Z,8.47
2023-03-29T14:03:20.172Z,8.23
2023-03-29T14:05:53.895Z,8.17
2023-03-29T14:08:27.199Z,6.87
2023-03-29T14:10:55.326Z,8.37
2023-03-29T14:13:24.846Z,7.43
2023-03-29T14:16:02.490Z,8.03
2023-03-29T14:18:37.294Z,7.97
2023-03-29T14:21:05.585Z,8.77
2023-03-29T14:23:37.298Z,7.50
2023-03-29T14:26:10.462Z,7.03
2023-03-29T14:28:44.632Z,7.50
2023-03-29T14:31:19.635Z,7.70
2023-03-29T14:33:53.256Z,7.53
2023-03-29T14:36:21.256Z,6.80
2023-03-29T14:38:53.222Z,7.70
2023-03-29T14:41:22.017Z,6.40
2023-03-29T14:43:51.492Z,6.77
2023-03-29T14:46:21.800Z,7.10
2023-03-29T14:48:49.188Z,6.93
2023-03-29T14:51:16.364Z,7.00
2023-03-29T14:53:44.223Z,7.57
2023-03-29T14:56:15.659Z,7.17
2023-03-29T14:58:49.284Z,7.10
2023-03-29T15:01:20.277Z,8.13
2023-03-29T15:03:54.687Z,7.67
2023-03-29T15:06:24.902Z,7.70
2023-03-29T15:09:04.414Z,8.67
2023-03-29T15:11:34.045Z,7.70
2023-03-29T15:14:05.961Z,7.53
2023-03-29T15:16:39.107Z,7.63
2023-03-29T15:19:06.667Z,7.83
2023-03-29T15:21:35.927Z,8.27
2023-03-29T15:24:05.286Z,8.33
2023-03-29T15:26:35.329Z,7.97
2023-03-29T15:29:08.140Z,7.93
2023-03-29T15:31:39.719Z,7.90
2023-03-29T15:34:10.285Z,8.00
2023-03-29T15:36:42.350Z,8.03
2023-03-29T15:39:13.419Z,7.47
2023-03-29T15:41:41.307Z,8.07
2023-03-29T15:44:09.584Z,8.10
2023-03-29T15:46:37.929Z,8.07
2023-03-29T15:49:05.016Z,6.43
2023-03-29T15:51:31.992Z,7.00
2023-03-29T15:53:58.997Z,6.70
2023-03-29T15:56:26.941Z,6.93
2023-03-29T15:58:54.024Z,7.17
2023-03-29T16:01:34.445Z,7.13
2023-03-29T16:04:06.697Z,7.73
2023-03-29T16:06:34.656Z,8.47
2023-03-29T16:09:01.861Z,7.90
2023-03-29T16:11:28.948Z,9.30
2023-03-29T16:13:56.831Z,8.93
2023-03-29T16:16:24.793Z,7.93
2023-03-29T16:18:52.462Z,8.40
2023-03-29T16:21:22.788Z,7.50
2023-03-29T16:23:51.272Z,8.43
2023-03-29T16:26:18.306Z,8.70
2023-03-29T16:28:45.433Z,8.50
2023-03-29T16:31:14.189Z,8.60
2023-03-29T16:33:41.944Z,9.00
2023-03-29T16:36:10.475Z,7.73
2023-03-29T16:38:38.714Z,9.37
2023-03-29T16:41:07.079Z,8.93
2023-03-29T16:43:34.161Z,8.53
2023-03-29T16:46:01.615Z,8.33
2023-03-29T16:48:28.759Z,9.53
2023-03-29T16:50:55.962Z,7.80
2023-03-29T16:53:23.546Z,8.37
2023-03-29T16:55:51.984Z,8.40
2023-03-29T16:58:19.091Z,8.63
2023-03-29T17:00:48.314Z,8.47
2023-03-29T17:03:16.012Z,8.50
2023-03-29T17:05:47.448Z,9.00
2023-03-29T17:08:14.822Z,9.83
2023-03-29T17:10:42.212Z,8.10
2023-03-29T17:13:11.594Z,10.13
2023-03-29T17:15:39.853Z,8.90
2023-03-29T17:18:08.469Z,9.33
2023-03-29T17:20:38.374Z,8.80
2023-03-29T17:23:05.299Z,9.17
2023-03-29T17:25:32.284Z,8.93
2023-03-29T17:27:59.347Z,9.40
2023-03-29T17:30:28.221Z,10.83
2023-03-29T17:32:55.593Z,9.40
2023-03-29T17:35:23.478Z,9.37
2023-03-29T17:37:50.738Z,9.57
2023-03-29T17:40:18.512Z,9.40
2023-03-29T17:42:48.805Z,10.20
2023-03-29T17:45:16.501Z,11.10
2023-03-29T17:47:45.659Z,10.10
2023-03-29T17:50:13.271Z,10.70
2023-03-29T17:52:40.385Z,11.07
2023-03-29T17:55:11.164Z,11.13
2023-03-29T17:57:38.807Z,11.10
2023-03-29T18:00:09.245Z,11.07
2023-03-29T18:02:36.365Z,11.43
2023-03-29T18:05:05.664Z,10.50
2023-03-29T18:07:32.712Z,11.83
2023-03-29T18:10:00.037Z,10.90
2023-03-29T18:12:28.540Z,12.47
2023-03-29T18:14:59.347Z,12.50
2023-03-29T18:17:27.317Z,13.50
2023-03-29T18:19:54.474Z,13.53
2023-03-29T18:22:24.013Z,13.53
2023-03-29T18:24:51.345Z,13.20
2023-03-29T18:27:18.923Z,14.40
2023-03-29T18:29:46.203Z,14.60
2023-03-29T18:32:14.363Z,15.60
2023-03-29T18:34:41.425Z,15.63
2023-03-29T18:37:14.416Z,14.97
2023-03-29T18:39:43.021Z,14.23
2023-03-29T18:42:11.620Z,15.43
2023-03-29T18:44:40.638Z,15.53
2023-03-29T18:47:08.516Z,15.83
2023-03-29T18:49:36.608Z,15.73
2023-03-29T18:52:05.686Z,16.13
2023-03-29T18:54:32.950Z,16.23
2023-03-29T18:57:01.771Z,17.30
2023-03-29T18:59:29.171Z,17.27
2023-03-29T19:01:56.877Z,17.43
2023-03-29T19:04:26.419Z,17.50
2023-03-29T19:06:55.547Z,17.50
2023-03-29T19:09:22.912Z,17.23
2023-03-29T19:11:50.203Z,18.70
2023-03-29T19:14:23.440Z,18.40
2023-03-29T19:16:52.010Z,18.50
2023-03-29T19:19:19.520Z,17.93
2023-03-29T19:21:49.987Z,15.73
2023-03-29T19:24:17.147Z,15.87
2023-03-29T19:26:45.336Z,15.80
2023-03-29T19:29:12.421Z,16.47
2023-03-29T19:31:40.762Z,18.80
2023-03-29T19:34:10.783Z,16.83
2023-03-29T19:36:38.614Z,18.27
2023-03-29T19:39:07.005Z,18.93
2023-03-29T19:41:33.976Z,19.53
2023-03-29T19:44:01.284Z,18.23
2023-03-29T19:46:29.198Z,17.77
2023-03-29T19:48:59.284Z,18.43
2023-03-29T19:51:27.754Z,18.67
2023-03-29T19:53:55.697Z,18.50
2023-03-29T19:56:23.934Z,18.67
2023-03-29T19:58:52.263Z,20.43
2023-03-29T20:01:22.049Z,20.53
2023-03-29T20:03:50.037Z,19.67
2023-03-29T20:06:20.878Z,17.30
2023-03-29T20:08:47.900Z,15.70
2023-03-29T20:11:16.151Z,18.30
2023-03-29T20:13:44.852Z,17.70
2023-03-29T20:16:14.877Z,17.80
2023-03-29T20:18:44.706Z,16.83
2023-03-29T20:21:16.566Z,16.80
2023-03-29T20:23:45.810Z,18.40
2023-03-29T20:26:12.914Z,18.90
2023-03-29T20:28:39.907Z,18.87
2023-03-29T20:31:10.986Z,19.37
2023-03-29T20:33:39.169Z,19.73
2023-03-29T20:36:08.415Z,18.50
2023-03-29T20:38:35.693Z,17.90
2023-03-29T20:41:05.330Z,16.17
2023-03-29T20:43:37.416Z,17.70
2023-03-29T20:46:05.272Z,16.67
2023-03-29T20:48:33.035Z,18.53
2023-03-29T20:51:02.920Z,16.63
2023-03-29T20:53:34.519Z,18.77
2023-03-29T20:56:03.315Z,18.30
2023-03-29T20:58:30.483Z,18.00
2023-03-29T21:00:58.769Z,18.33
2023-03-29T21:03:26.173Z,17.57
2023-03-29T21:05:55.091Z,18.17
2023-03-29T21:08:22.478Z,18.60
2023-03-29T21:10:49.424Z,19.33
2023-03-29T21:13:18.341Z,18.00
2023-03-29T21:15:46.960Z,18.93
2023-03-29T21:18:14.089Z,20.47
2023-03-29T21:20:41.996Z,18.67
2023-03-29T21:23:09.277Z,18.57
2023-03-29T21:25:37.254Z,17.67
2023-03-29T21:28:04.244Z,17.70
2023-03-29T21:30:33.115Z,17.57
2023-03-29T21:33:01.017Z,20.37
2023-03-29T21:35:28.468Z,19.50
2023-03-29T21:37:55.450Z,17.67
2023-03-29T21:40:22.544Z,18.73
2023-03-29T21:42:49.797Z,18.93
2023-03-29T21:45:17.291Z,18.83
2023-03-29T21:47:46.096Z,18.83
2023-03-29T21:50:13.613Z,18.87
2023-03-29T21:52:40.790Z,20.03
2023-03-29T21:55:09.055Z,19.90
2023-03-29T21:57:36.262Z,19.63
2023-03-29T22:00:05.429Z,20.27
2023-03-29T22:02:32.571Z,20.23
2023-03-29T22:05:01.106Z,19.10
2023-03-29T22:07:28.559Z,20.23
2023-03-29T22:09:58.533Z,19.23
2023-03-29T22:12:27.015Z,20.43
2023-03-29T22:14:54.372Z,19.87
2023-03-29T22:17:23.056Z,19.50
2023-03-29T22:19:50.210Z,19.77
2023-03-29T22:22:18.827Z,18.33
2023-03-29T22:24:46.075Z,19.47
2023-03-29T22:27:13.159Z,18.60
2023-03-29T22:29:40.230Z,17.73
2023-03-29T22:32:07.232Z,17.67
2023-03-29T22:34:34.376Z,18.43
2023-03-29T22:37:01.322Z,18.83
2023-03-29T22:39:29.812Z,17.73
2023-03-29T22:41:56.781Z,18.30
2023-03-29T22:44:23.945Z,18.33
2023-03-29T22:46:51.563Z,16.90
2023-03-29T22:49:18.699Z,18.90
2023-03-29T22:51:46.228Z,17.23
2023-03-29T22:54:13.393Z,16.67
2023-03-29T22:56:41.876Z,18.23
2023-03-29T22:59:08.851Z,17.10
2023-03-29T23:01:35.807Z,15.00
2023-03-29T23:04:02.926Z,16.03
2023-03-29T23:06:30.100Z,16.27
2023-03-29T23:08:56.935Z,16.33
2023-03-29T23:11:23.884Z,16.23
2023-03-29T23:13:52.403Z,17.20
2023-03-29T23:16:22.561Z,16.67
2023-03-29T23:18:49.679Z,15.60
2023-03-29T23:21:16.919Z,15.83
2023-03-29T23:23:44.601Z,15.13
2023-03-29T23:26:11.751Z,16.77
2023-03-29T23:28:38.627Z,16.57
2023-03-29T23:31:10.539Z,16.53
2023-03-29T23:33:41.097Z,16.23
2023-03-29T23:36:11.628Z,14.97
2023-03-29T23:38:39.967Z,16.30
2023-03-29T23:41:10.266Z,15.53
2023-03-29T23:43:40.292Z,16.17
2023-03-29T23:46:10.601Z,17.10
2023-03-29T23:48:38.502Z,16.43
2023-03-29T23:51:07.877Z,16.33
2023-03-29T23:53:34.772Z,15.67
2023-03-29T23:56:04.967Z,14.87
2023-03-29T23:58:35.221Z,15.30
